createdAt,value
2022-09-09T00:00:53.084Z,0.7
2022-09-09T00:02:02.793Z,1
2022-09-09T00:03:11.647Z,1.2
2022-09-09T00:04:21.221Z,0.7
2022-09-09T00:05:30.992Z,0.2
2022-09-09T00:06:40.660Z,0.4
2022-09-09T00:07:50.317Z,0.4
2022-09-09T00:09:00.063Z,0.4
2022-09-09T00:10:08.866Z,0.4
2022-09-09T00:11:19.574Z,0.9
2022-09-09T00:12:28.260Z,0.9
2022-09-09T00:13:36.975Z,1
2022-09-09T00:14:46.655Z,1
2022-09-09T00:15:54.476Z,1
2022-09-09T00:17:04.172Z,0.8
2022-09-09T00:18:13.757Z,0.8
2022-09-09T00:19:23.479Z,0.8
2022-09-09T00:20:33.221Z,0.9
2022-09-09T00:21:42.169Z,1
2022-09-09T00:22:50.761Z,0.7
2022-09-09T00:24:00.483Z,0.8
2022-09-09T00:25:10.234Z,0.9
2022-09-09T00:26:20.002Z,0.8
2022-09-09T00:27:28.711Z,0.8
2022-09-09T00:28:37.467Z,0.8
2022-09-09T00:29:47.124Z,0.9
2022-09-09T00:30:55.845Z,0.7
2022-09-09T00:32:04.492Z,0.4
2022-09-09T00:33:14.222Z,0.4
2022-09-09T00:34:22.971Z,0.4
2022-09-09T00:35:32.678Z,0.5
2022-09-09T00:36:42.486Z,0.5
2022-09-09T00:37:52.398Z,0.7
2022-09-09T00:39:02.116Z,0.7
2022-09-09T00:40:10.861Z,0.8
2022-09-09T00:41:18.464Z,1
2022-09-09T00:42:28.152Z,0.9
2022-09-09T00:43:35.841Z,0.8
2022-09-09T00:44:44.556Z,0.8
2022-09-09T00:45:54.381Z,0.7
2022-09-09T00:47:02.075Z,1
2022-09-09T00:48:11.735Z,0.9
2022-09-09T00:49:20.423Z,1
2022-09-09T00:50:28.193Z,0.8
2022-09-09T00:51:37.968Z,1
2022-09-09T00:52:45.676Z,1.2
2022-09-09T00:53:55.421Z,1
2022-09-09T00:55:05.162Z,0.9
2022-09-09T00:56:12.859Z,1.2
2022-09-09T00:57:22.522Z,1
2022-09-09T00:58:31.307Z,1.1
2022-09-09T00:59:40.020Z,1.2
2022-09-09T01:00:49.683Z,1.2
2022-09-09T01:01:57.536Z,1
2022-09-09T01:03:06.117Z,1
2022-09-09T01:04:15.846Z,1.3
2022-09-09T01:05:25.580Z,1.2
2022-09-09T01:06:35.274Z,1.1
2022-09-09T01:07:43.999Z,1.3
2022-09-09T01:08:52.674Z,1.1
2022-09-09T01:10:02.403Z,1
2022-09-09T01:11:11.101Z,1
2022-09-09T01:12:20.781Z,0.8
2022-09-09T01:13:30.583Z,0.7
2022-09-09T01:14:40.335Z,0.8
2022-09-09T01:15:50.044Z,0.8
2022-09-09T01:16:58.767Z,0.6
2022-09-09T01:18:08.545Z,0.5
2022-09-09T01:19:18.242Z,0.7
2022-09-09T01:20:27.907Z,0.5
2022-09-09T01:21:37.581Z,0.7
2022-09-09T01:22:47.282Z,0.6
2022-09-09T01:23:56.948Z,0.4
2022-09-09T01:25:06.667Z,0.5
2022-09-09T01:26:16.311Z,0.6
2022-09-09T01:27:26.021Z,0.6
2022-09-09T01:28:35.786Z,0.6
2022-09-09T01:29:44.403Z,0.6
2022-09-09T01:30:54.198Z,0.7
2022-09-09T01:32:03.790Z,0.6
2022-09-09T01:33:13.463Z,0.4
2022-09-09T01:34:23.148Z,0.7
2022-09-09T01:35:31.844Z,0.7
2022-09-09T01:36:41.577Z,0.6
2022-09-09T01:37:50.310Z,0.8
2022-09-09T01:38:59.033Z,0.9
2022-09-09T01:40:08.867Z,1.1
2022-09-09T01:41:16.553Z,1.1
2022-09-09T01:42:25.241Z,0.9
2022-09-09T01:43:34.989Z,1.2
2022-09-09T01:44:43.682Z,1
2022-09-09T01:45:53.434Z,1.1
2022-09-09T01:47:03.068Z,1.2
2022-09-09T01:48:10.740Z,1
2022-09-09T01:49:20.439Z,1.1
2022-09-09T01:50:29.130Z,0.8
2022-09-09T01:51:38.873Z,0.9
2022-09-09T01:52:48.554Z,1
2022-09-09T01:53:56.275Z,1
2022-09-09T01:55:05.941Z,1
2022-09-09T01:56:15.735Z,0.9
2022-09-09T01:57:23.482Z,0.6
2022-09-09T01:58:33.232Z,0.7
2022-09-09T01:59:41.926Z,0.7
2022-09-09T02:00:51.612Z,0.7
2022-09-09T02:02:00.388Z,0.7
2022-09-09T02:03:07.936Z,0.7
2022-09-09T02:04:17.614Z,0.5
2022-09-09T02:05:27.305Z,0.5
2022-09-09T02:06:35.982Z,0.5
2022-09-09T02:07:45.650Z,0.7
2022-09-09T02:08:54.360Z,0.8
2022-09-09T02:10:03.031Z,0.5
2022-09-09T02:11:12.722Z,0.7
2022-09-09T02:12:21.425Z,0.6
2022-09-09T02:13:31.358Z,0.6
2022-09-09T02:14:41.128Z,0.7
2022-09-09T02:15:48.732Z,0.5
2022-09-09T02:16:58.681Z,0.6
2022-09-09T02:18:06.273Z,0.6
2022-09-09T02:19:15.942Z,0.7
2022-09-09T02:20:25.747Z,0.5
2022-09-09T02:21:34.398Z,0.6
2022-09-09T02:22:44.075Z,0.5
2022-09-09T02:23:53.730Z,0.7
2022-09-09T02:25:02.416Z,0.8
2022-09-09T02:26:12.083Z,1.2
2022-09-09T02:27:20.775Z,1.5
2022-09-09T02:28:30.483Z,1.6
2022-09-09T02:29:40.236Z,1.8
2022-09-09T02:30:47.979Z,1.2
2022-09-09T02:31:56.572Z,1
2022-09-09T02:33:05.222Z,0.9
2022-09-09T02:34:13.916Z,0.8
2022-09-09T02:35:24.595Z,0.8
2022-09-09T02:36:31.283Z,0.7
2022-09-09T02:37:41.013Z,0.6
2022-09-09T02:38:50.708Z,0.6
2022-09-09T02:39:59.446Z,0.7
2022-09-09T02:41:09.089Z,0.8
2022-09-09T02:42:17.859Z,1
2022-09-09T02:43:27.519Z,0.8
2022-09-09T02:44:37.214Z,1.1
2022-09-09T02:45:45.948Z,0.7
2022-09-09T02:46:54.555Z,0.8
2022-09-09T02:48:04.223Z,0.6
2022-09-09T02:49:11.906Z,0.7
2022-09-09T02:50:21.705Z,0.5
2022-09-09T02:51:30.378Z,0.4
2022-09-09T02:52:38.050Z,0.6
2022-09-09T02:53:47.796Z,0.4
2022-09-09T02:54:55.483Z,0.5
2022-09-09T02:56:05.193Z,0.4
2022-09-09T02:57:14.997Z,0.5
2022-09-09T02:58:22.683Z,0.5
2022-09-09T02:59:32.353Z,0.4
2022-09-09T03:00:41.072Z,0.4
2022-09-09T03:01:48.755Z,0.5
2022-09-09T03:02:58.448Z,0.4
2022-09-09T03:04:07.112Z,0.4
2022-09-09T03:05:15.772Z,0.3
2022-09-09T03:06:25.446Z,0.5
2022-09-09T03:07:34.137Z,0.5
2022-09-09T03:08:49.337Z,0.5
2022-09-09T03:09:52.580Z,0.4
2022-09-09T03:11:01.269Z,0.5
2022-09-09T03:12:10.960Z,0.3
2022-09-09T03:13:19.652Z,0.3
2022-09-09T03:14:28.364Z,0.3
2022-09-09T03:15:38.055Z,0.3
2022-09-09T03:16:46.797Z,0.4
2022-09-09T03:17:56.467Z,0.4
2022-09-09T03:19:06.103Z,0.3
2022-09-09T03:20:14.956Z,0.5
2022-09-09T03:21:24.623Z,0.4
2022-09-09T03:22:32.309Z,0.5
2022-09-09T03:23:41.986Z,0.6
2022-09-09T03:24:51.660Z,0.6
2022-09-09T03:26:01.391Z,0.6
2022-09-09T03:27:11.052Z,0.6
2022-09-09T03:28:20.754Z,0.6
2022-09-09T03:29:29.418Z,0.6
2022-09-09T03:30:39.099Z,0.4
2022-09-09T03:31:48.818Z,0.5
2022-09-09T03:32:58.498Z,0.6
2022-09-09T03:34:07.172Z,0.4
2022-09-09T03:35:15.907Z,0.5
2022-09-09T03:36:24.600Z,0.4
2022-09-09T03:37:33.309Z,0.5
2022-09-09T03:38:42.987Z,0.6
2022-09-09T03:39:51.686Z,0.4
2022-09-09T03:41:00.339Z,0.4
2022-09-09T03:42:09.999Z,0.6
2022-09-09T03:43:18.699Z,0.6
2022-09-09T03:44:28.376Z,0.6
2022-09-09T03:45:38.183Z,0.5
2022-09-09T03:46:45.779Z,0.4
2022-09-09T03:47:55.506Z,0.4
2022-09-09T03:49:04.224Z,0.4
2022-09-09T03:50:11.890Z,0.4
2022-09-09T03:51:21.567Z,0.3
2022-09-09T03:52:30.231Z,0.4
2022-09-09T03:53:38.894Z,0.4
2022-09-09T03:54:48.599Z,0.6
2022-09-09T03:55:57.392Z,0.4
2022-09-09T03:57:07.026Z,0.4
2022-09-09T03:58:15.681Z,0.3
2022-09-09T03:59:24.355Z,0.3
2022-09-09T04:00:34.283Z,0.5
2022-09-09T04:01:43.042Z,0.4
2022-09-09T04:02:51.726Z,0.3
2022-09-09T04:04:01.385Z,0.4
2022-09-09T04:05:09.098Z,0.5
2022-09-09T04:06:18.805Z,0.2
2022-09-09T04:07:27.486Z,0.4
2022-09-09T04:08:36.257Z,0.5
2022-09-09T04:09:45.818Z,0.3
2022-09-09T04:10:54.473Z,0.3
2022-09-09T04:12:03.981Z,0.5
2022-09-09T04:13:13.645Z,0.5
2022-09-09T04:14:21.334Z,0.2
2022-09-09T04:15:31.012Z,0.5
2022-09-09T04:16:39.695Z,0.5
2022-09-09T04:17:48.377Z,0.5
2022-09-09T04:18:58.052Z,0.3
2022-09-09T04:20:07.008Z,0.4
2022-09-09T04:21:16.710Z,0.3
2022-09-09T04:22:26.362Z,0.5
2022-09-09T04:23:35.134Z,0.5
2022-09-09T04:24:48.618Z,0.5
2022-09-09T04:25:53.456Z,0.5
2022-09-09T04:27:02.103Z,0.5
2022-09-09T04:28:11.900Z,0.4
2022-09-09T04:29:20.613Z,0.5
2022-09-09T04:30:29.294Z,0.5
2022-09-09T04:31:38.994Z,0.6
2022-09-09T04:32:48.649Z,0.5
2022-09-09T04:33:58.320Z,0.5
2022-09-09T04:35:08.086Z,0.4
2022-09-09T04:36:17.735Z,0.5
2022-09-09T04:37:27.408Z,0.5
2022-09-09T04:38:36.210Z,0.5
2022-09-09T04:39:45.877Z,0.5
2022-09-09T04:40:55.505Z,0.5
2022-09-09T04:42:03.194Z,0.5
2022-09-09T04:43:14.535Z,0.5
2022-09-09T04:44:22.675Z,0.5
2022-09-09T04:45:31.367Z,0.6
2022-09-09T04:46:40.126Z,0.4
2022-09-09T04:47:47.809Z,0.4
2022-09-09T04:48:56.497Z,0.5
2022-09-09T04:50:06.189Z,0.5
2022-09-09T04:51:14.867Z,0.5
2022-09-09T04:52:24.553Z,0.4
2022-09-09T04:53:33.259Z,0.4
2022-09-09T04:54:42.000Z,0.5
2022-09-09T04:55:51.682Z,0.4
2022-09-09T04:56:59.399Z,0.3
2022-09-09T04:58:08.128Z,0.5
2022-09-09T04:59:17.825Z,0.4
2022-09-09T05:00:26.531Z,0.5
2022-09-09T05:01:36.206Z,0.4
2022-09-09T05:02:45.962Z,0.3
2022-09-09T05:03:54.646Z,0.4
2022-09-09T05:05:04.316Z,0.4
2022-09-09T05:06:11.999Z,0.3
2022-09-09T05:07:20.679Z,0.3
2022-09-09T05:08:30.366Z,0.4
2022-09-09T05:09:38.074Z,0.4
2022-09-09T05:10:47.723Z,0.3
2022-09-09T05:11:56.385Z,0.3
2022-09-09T05:13:05.051Z,0.3
2022-09-09T05:14:14.738Z,0.4
2022-09-09T05:15:22.421Z,0.5
2022-09-09T05:16:31.152Z,0.4
2022-09-09T05:17:40.761Z,0.5
2022-09-09T05:18:49.470Z,0.5
2022-09-09T05:19:59.131Z,0.7
2022-09-09T05:21:07.820Z,0.6
2022-09-09T05:22:15.489Z,0.5
2022-09-09T05:23:25.174Z,0.6
2022-09-09T05:24:33.876Z,0.7
2022-09-09T05:25:42.581Z,0.4
2022-09-09T05:26:52.426Z,0.6
2022-09-09T05:28:02.124Z,0.6
2022-09-09T05:29:11.862Z,0.4
2022-09-09T05:30:21.552Z,0.6
2022-09-09T05:31:31.307Z,0.4
2022-09-09T05:32:39.931Z,0.5
2022-09-09T05:33:47.599Z,0.5
2022-09-09T05:34:57.377Z,0.4
2022-09-09T05:36:05.041Z,0.3
2022-09-09T05:37:13.703Z,0.3
2022-09-09T05:38:26.976Z,0.3
2022-09-09T05:39:33.104Z,0.3
2022-09-09T05:40:42.773Z,0.4
2022-09-09T05:41:51.489Z,0.6
2022-09-09T05:43:00.134Z,0.5
2022-09-09T05:44:08.835Z,0.5
2022-09-09T05:45:16.521Z,0.5
2022-09-09T05:46:25.362Z,0.7
2022-09-09T05:47:34.966Z,0.7
2022-09-09T05:48:43.643Z,0.7
2022-09-09T05:49:53.350Z,0.5
2022-09-09T05:51:02.056Z,0.5
2022-09-09T05:52:09.776Z,0.5
2022-09-09T05:53:19.473Z,0.9
2022-09-09T05:54:28.170Z,0.9
2022-09-09T05:55:36.865Z,0.6
2022-09-09T05:56:49.915Z,0.6
2022-09-09T05:57:55.238Z,0.5
2022-09-09T05:59:04.912Z,0.5
2022-09-09T06:00:13.613Z,0.8
2022-09-09T06:01:22.427Z,0.4
2022-09-09T06:02:32.179Z,0.3
2022-09-09T06:03:40.780Z,0.5
2022-09-09T06:04:49.456Z,0.4
2022-09-09T06:05:59.150Z,0.4
2022-09-09T06:07:06.952Z,0.5
2022-09-09T06:08:16.691Z,0.3
2022-09-09T06:09:25.351Z,0.3
2022-09-09T06:10:33.023Z,0.4
2022-09-09T06:11:42.734Z,0.5
2022-09-09T06:12:52.459Z,0.5
2022-09-09T06:14:02.214Z,0.4
2022-09-09T06:15:11.863Z,0.3
2022-09-09T06:16:20.613Z,0.4
2022-09-09T06:17:30.263Z,0.4
2022-09-09T06:18:40.004Z,0.6
2022-09-09T06:19:47.690Z,0.4
2022-09-09T06:20:57.392Z,0.4
2022-09-09T06:22:06.089Z,0.5
2022-09-09T06:23:15.807Z,0.3
2022-09-09T06:24:24.549Z,0.3
2022-09-09T06:25:34.253Z,0.6
2022-09-09T06:26:43.944Z,0.5
2022-09-09T06:27:53.616Z,0.4
2022-09-09T06:29:03.281Z,0.5
2022-09-09T06:30:13.048Z,0.4
2022-09-09T06:31:21.801Z,0.4
2022-09-09T06:32:31.403Z,0.6
2022-09-09T06:33:40.106Z,0.3
2022-09-09T06:34:47.840Z,0.6
2022-09-09T06:35:57.700Z,0.4
2022-09-09T06:37:06.376Z,0.4
2022-09-09T06:38:14.105Z,0.4
2022-09-09T06:39:23.830Z,0.3
2022-09-09T06:40:32.600Z,0.2
2022-09-09T06:41:41.301Z,0.3
2022-09-09T06:42:51.002Z,0.3
2022-09-09T06:43:58.677Z,0.3
2022-09-09T06:45:07.379Z,0.5
2022-09-09T06:46:17.129Z,0.6
2022-09-09T06:47:25.737Z,0.8
2022-09-09T06:48:35.466Z,1.1
2022-09-09T06:49:47.733Z,0.5
2022-09-09T06:50:52.786Z,0.6
2022-09-09T06:52:02.434Z,0.4
2022-09-09T06:53:10.145Z,0.8
2022-09-09T06:54:19.846Z,0.9
2022-09-09T06:55:28.504Z,0.7
2022-09-09T06:56:37.164Z,0.6
2022-09-09T06:57:47.034Z,0.8
2022-09-09T06:58:54.731Z,0.6
2022-09-09T07:00:04.419Z,0.5
2022-09-09T07:01:14.182Z,0.6
2022-09-09T07:02:22.845Z,0.4
2022-09-09T07:03:32.472Z,0.3
2022-09-09T07:04:41.169Z,0.3
2022-09-09T07:05:48.896Z,0.3
2022-09-09T07:06:58.584Z,0.4
2022-09-09T07:08:06.262Z,0.4
2022-09-09T07:09:14.939Z,0.4
2022-09-09T07:10:24.776Z,0.4
2022-09-09T07:11:32.451Z,0.3
2022-09-09T07:12:42.142Z,0.4
2022-09-09T07:13:50.797Z,0.3
2022-09-09T07:15:00.476Z,0.3
2022-09-09T07:16:10.385Z,0.4
2022-09-09T07:17:17.993Z,0.2
2022-09-09T07:18:27.702Z,0.2
2022-09-09T07:19:37.470Z,0.3
2022-09-09T07:20:45.173Z,0.3
2022-09-09T07:21:54.887Z,0.4
2022-09-09T07:23:03.576Z,0.2
2022-09-09T07:24:11.323Z,0.2
2022-09-09T07:25:20.982Z,0.2
2022-09-09T07:26:28.648Z,0.3
2022-09-09T07:27:38.371Z,0.2
2022-09-09T07:28:46.101Z,0.2
2022-09-09T07:29:55.755Z,0.2
2022-09-09T07:31:05.465Z,0.3
2022-09-09T07:32:14.076Z,0.2
2022-09-09T07:33:24.053Z,0.2
2022-09-09T07:34:32.766Z,0.3
2022-09-09T07:35:41.436Z,0.2
2022-09-09T07:36:51.112Z,0.2
2022-09-09T07:37:58.768Z,0.3
2022-09-09T07:39:07.606Z,0.3
2022-09-09T07:40:16.356Z,0.2
2022-09-09T07:41:24.955Z,0.2
2022-09-09T07:42:34.785Z,0.3
2022-09-09T07:43:44.481Z,0.2
2022-09-09T07:44:52.156Z,0.2
2022-09-09T07:46:01.848Z,0.3
2022-09-09T07:47:09.522Z,0.4
2022-09-09T07:48:18.222Z,0.3
2022-09-09T07:49:32.259Z,0.4
2022-09-09T07:50:36.560Z,0.5
2022-09-09T07:51:46.238Z,0.7
2022-09-09T07:52:54.911Z,0.5
2022-09-09T07:54:03.591Z,0.4
2022-09-09T07:55:12.278Z,0.3
2022-09-09T07:56:22.025Z,0.3
2022-09-09T07:57:31.713Z,0.3
2022-09-09T07:58:41.364Z,0.2
2022-09-09T07:59:50.063Z,0.2
2022-09-09T08:01:00.478Z,0.4
2022-09-09T08:02:09.166Z,0.3
2022-09-09T08:03:18.020Z,0.2
2022-09-09T08:04:26.637Z,0.3
2022-09-09T08:05:35.337Z,0.3
2022-09-09T08:06:44.048Z,0.2
2022-09-09T08:07:53.696Z,0.2
2022-09-09T08:09:01.375Z,0.2
2022-09-09T08:10:11.050Z,0.2
2022-09-09T08:11:19.736Z,0.1
2022-09-09T08:12:29.415Z,0.2
2022-09-09T08:13:39.221Z,0.3
2022-09-09T08:14:47.909Z,0.2
2022-09-09T08:15:57.601Z,0.2
2022-09-09T08:17:07.237Z,0.2
2022-09-09T08:18:15.912Z,0.3
2022-09-09T08:19:25.614Z,0.3
2022-09-09T08:20:34.288Z,0.2
2022-09-09T08:21:43.974Z,0.3
2022-09-09T08:22:53.690Z,0.4
2022-09-09T08:24:03.396Z,0.4
2022-09-09T08:25:12.151Z,0.4
2022-09-09T08:26:21.840Z,0.7
2022-09-09T08:27:29.518Z,0.7
2022-09-09T08:28:39.219Z,0.9
2022-09-09T08:29:48.937Z,0.5
2022-09-09T08:30:56.786Z,0.4
2022-09-09T08:32:06.388Z,0.2
2022-09-09T08:33:14.117Z,0.2
2022-09-09T08:34:22.859Z,0.3
2022-09-09T08:35:32.579Z,0.2
2022-09-09T08:36:41.328Z,0.2
2022-09-09T08:37:51.423Z,0.2
2022-09-09T08:38:58.696Z,0.1
2022-09-09T08:40:08.409Z,0.3
2022-09-09T08:41:18.045Z,0.1
2022-09-09T08:42:25.740Z,0.5
2022-09-09T08:43:35.424Z,0.2
2022-09-09T08:44:48.701Z,0.3
2022-09-09T08:45:53.813Z,0.3
2022-09-09T08:47:03.520Z,0.2
2022-09-09T08:48:13.251Z,0.2
2022-09-09T08:49:21.950Z,0.3
2022-09-09T08:50:31.635Z,0.2
2022-09-09T08:51:39.303Z,0.1
2022-09-09T08:52:47.969Z,0.2
2022-09-09T08:53:59.730Z,0.1
2022-09-09T08:55:07.363Z,0.2
2022-09-09T08:56:17.035Z,0.2
2022-09-09T08:57:25.711Z,0.3
2022-09-09T08:58:34.423Z,0.2
2022-09-09T08:59:44.089Z,0.1
2022-09-09T09:00:51.780Z,0.2
2022-09-09T09:02:01.526Z,0.3
2022-09-09T09:03:11.138Z,0.2
2022-09-09T09:04:19.822Z,0.4
2022-09-09T09:05:29.499Z,0.1
2022-09-09T09:06:38.205Z,0.2
2022-09-09T09:07:47.881Z,0.2
2022-09-09T09:08:57.579Z,0.3
2022-09-09T09:10:19.160Z,0.3
2022-09-09T09:11:17.024Z,0.3
2022-09-09T09:12:26.702Z,0.2
2022-09-09T09:13:34.388Z,0.2
2022-09-09T09:14:45.041Z,0.3
2022-09-09T09:15:53.788Z,0.2
2022-09-09T09:17:02.564Z,0.2
2022-09-09T09:18:12.260Z,0.2
2022-09-09T09:19:19.919Z,0.2
2022-09-09T09:20:28.641Z,0.4
2022-09-09T09:21:38.381Z,0.3
2022-09-09T09:22:47.144Z,0.2
2022-09-09T09:23:56.824Z,0.2
2022-09-09T09:25:05.502Z,0.2
2022-09-09T09:26:15.199Z,0.2
2022-09-09T09:27:23.923Z,0.3
2022-09-09T09:28:31.586Z,0.1
2022-09-09T09:29:56.641Z,0.2
2022-09-09T09:30:49.955Z,0.2
2022-09-09T09:31:59.611Z,0.3
2022-09-09T09:33:09.263Z,0.2
2022-09-09T09:34:17.968Z,0.3
2022-09-09T09:35:26.655Z,0.2
2022-09-09T09:36:35.353Z,0.4
2022-09-09T09:40:06.467Z,0.2
2022-09-09T09:41:16.175Z,0.3
2022-09-09T09:42:25.875Z,0.2
2022-09-09T09:43:33.563Z,0.2
2022-09-09T09:44:43.213Z,0.2
2022-09-09T09:46:07.193Z,0.2
2022-09-09T09:47:01.754Z,0.3
2022-09-09T09:48:13.804Z,0.2
2022-09-09T09:49:20.072Z,0.3
2022-09-09T09:50:28.834Z,0.2
2022-09-09T09:51:37.639Z,0.2
2022-09-09T09:52:46.253Z,0.2
2022-09-09T09:53:55.924Z,0.2
2022-09-09T09:55:07.644Z,0.2
2022-09-09T09:56:15.385Z,0.4
2022-09-09T09:57:25.084Z,0.2
2022-09-09T09:58:33.841Z,0.3
2022-09-09T09:59:42.476Z,0.3
2022-09-09T10:00:52.159Z,0.2
2022-09-09T10:02:00.894Z,0.2
2022-09-09T10:03:10.603Z,0.1
2022-09-09T10:04:19.348Z,0.2
2022-09-09T10:05:31.631Z,0.2
2022-09-09T10:06:39.619Z,0.2
2022-09-09T10:07:47.291Z,0.4
2022-09-09T10:08:55.985Z,0.2
2022-09-09T10:10:05.667Z,0.2
2022-09-09T10:11:14.374Z,0.3
2022-09-09T10:12:24.059Z,0.2
2022-09-09T10:13:32.749Z,0.3
2022-09-09T10:14:42.463Z,0.2
2022-09-09T10:15:52.238Z,0.2
2022-09-09T10:17:00.807Z,0.4
2022-09-09T10:18:09.532Z,0.2
2022-09-09T10:19:19.208Z,0.2
2022-09-09T10:20:29.034Z,0.2
2022-09-09T10:21:38.696Z,0.2
2022-09-09T10:22:47.344Z,0.3
2022-09-09T10:23:54.989Z,0.1
2022-09-09T10:25:04.653Z,0.2
2022-09-09T10:26:12.336Z,0.1
2022-09-09T10:27:22.991Z,0.1
2022-09-09T10:28:31.672Z,0.2
2022-09-09T10:29:39.373Z,0.2
2022-09-09T10:30:49.084Z,0.1
2022-09-09T10:31:58.693Z,0.1
2022-09-09T10:33:07.430Z,0.1
2022-09-09T10:34:17.063Z,0.1
2022-09-09T10:35:26.774Z,0.2
2022-09-09T10:36:35.505Z,0.3
2022-09-09T10:37:44.165Z,0.2
2022-09-09T10:38:52.823Z,0.2
2022-09-09T10:40:02.594Z,0.1
2022-09-09T10:41:11.226Z,0.1
2022-09-09T10:42:18.891Z,0.1
2022-09-09T10:43:28.702Z,0.3
2022-09-09T10:44:37.372Z,0.4
2022-09-09T10:45:46.061Z,0.2
2022-09-09T10:46:55.736Z,0.2
2022-09-09T10:48:03.431Z,0.2
2022-09-09T10:49:14.109Z,0.2
2022-09-09T10:50:22.762Z,0.3
2022-09-09T10:51:31.504Z,0.3
2022-09-09T10:52:41.483Z,0.2
2022-09-09T10:53:48.900Z,0.3
2022-09-09T10:54:57.598Z,0.2
2022-09-09T10:56:07.311Z,0.3
2022-09-09T10:57:14.975Z,0.1
2022-09-09T10:58:24.663Z,0.3
2022-09-09T10:59:33.333Z,0.2
2022-09-09T11:00:43.033Z,0.3
2022-09-09T11:01:52.716Z,0.3
2022-09-09T11:03:00.390Z,0.2
2022-09-09T11:04:09.099Z,0.1
2022-09-09T11:05:18.778Z,0.1
2022-09-09T11:06:26.528Z,0.1
2022-09-09T11:07:36.152Z,0.4
2022-09-09T11:08:44.829Z,0.2
2022-09-09T11:09:52.481Z,0.2
2022-09-09T11:11:02.142Z,0.2
2022-09-09T11:12:10.646Z,0.3
2022-09-09T11:13:18.501Z,0.2
2022-09-09T11:14:28.158Z,0.2
2022-09-09T11:15:37.813Z,0.3
2022-09-09T11:16:47.517Z,0.3
2022-09-09T11:17:56.188Z,0.4
2022-09-09T11:19:05.881Z,0.2
2022-09-09T11:20:15.538Z,0.3
2022-09-09T11:21:24.200Z,0.2
2022-09-09T11:22:32.879Z,0.2
2022-09-09T11:23:42.662Z,0.1
2022-09-09T11:24:51.327Z,0.2
2022-09-09T11:26:01.043Z,0.2
2022-09-09T11:27:08.677Z,0.2
2022-09-09T11:28:18.347Z,0.1
2022-09-09T11:29:27.025Z,0.2
2022-09-09T11:30:56.385Z,0.2
2022-09-09T11:31:47.363Z,0.2
2022-09-09T11:32:55.980Z,0.3
2022-09-09T11:34:04.645Z,0.1
2022-09-09T11:35:14.340Z,0.2
2022-09-09T11:36:21.979Z,0.2
2022-09-09T11:37:31.650Z,0.3
2022-09-09T11:38:40.307Z,0.2
2022-09-09T11:39:48.038Z,0.3
2022-09-09T11:40:57.695Z,0.3
2022-09-09T11:42:07.356Z,0.1
2022-09-09T11:43:17.021Z,0.2
2022-09-09T11:44:26.719Z,0.1
2022-09-09T11:45:34.368Z,0.1
2022-09-09T11:46:44.171Z,0.2
2022-09-09T11:47:52.826Z,0.2
2022-09-09T11:49:01.472Z,0.3
2022-09-09T11:50:11.130Z,0.6
2022-09-09T11:51:20.799Z,0.3
2022-09-09T11:52:29.451Z,0.2
2022-09-09T11:53:39.108Z,0.1
2022-09-09T11:54:46.792Z,0.1
2022-09-09T11:55:56.467Z,0.1
2022-09-09T11:57:06.214Z,0.1
2022-09-09T11:58:14.814Z,0.1
2022-09-09T11:59:24.481Z,0.2
2022-09-09T12:00:33.166Z,0.2
2022-09-09T12:01:41.831Z,0.1
2022-09-09T12:02:51.508Z,0
2022-09-09T12:04:00.235Z,0.1
2022-09-09T12:05:10.042Z,0
2022-09-09T12:06:18.513Z,0.1
2022-09-09T12:07:28.243Z,0
2022-09-09T12:08:38.035Z,0.1
2022-09-09T12:09:46.599Z,0.1
2022-09-09T12:10:55.270Z,0
2022-09-09T12:12:04.927Z,0.1
2022-09-09T12:13:12.587Z,0.1
2022-09-09T12:14:22.250Z,0.1
2022-09-09T12:15:30.955Z,0.1
2022-09-09T12:16:39.766Z,0.1
2022-09-09T12:17:49.295Z,0.1
2022-09-09T12:18:57.966Z,0
2022-09-09T12:20:06.628Z,0.1
2022-09-09T12:21:16.334Z,0.2
2022-09-09T12:22:26.002Z,0
2022-09-09T12:23:36.363Z,0.2
2022-09-09T12:24:44.326Z,0
2022-09-09T12:25:52.979Z,0
2022-09-09T12:27:01.812Z,0.2
2022-09-09T12:28:10.515Z,0.1
2022-09-09T12:29:19.192Z,0.1
2022-09-09T12:30:28.948Z,0
2022-09-09T12:31:40.194Z,0.1
2022-09-09T12:32:49.212Z,0.1
2022-09-09T12:33:57.863Z,0.1
2022-09-09T12:35:06.537Z,0.1
2022-09-09T12:36:16.239Z,0.1
2022-09-09T12:37:23.890Z,0.2
2022-09-09T12:38:32.580Z,0.1
2022-09-09T12:39:42.319Z,0.2
2022-09-09T12:40:49.919Z,0.1
2022-09-09T12:41:59.599Z,0.3
2022-09-09T12:43:09.937Z,0.1
2022-09-09T12:44:15.951Z,0.1
2022-09-09T12:45:26.154Z,0.3
2022-09-09T12:46:34.295Z,0.2
2022-09-09T12:47:44.149Z,0.1
2022-09-09T12:48:53.622Z,0.1
2022-09-09T12:50:03.483Z,0
2022-09-09T12:51:12.129Z,0.1
2022-09-09T12:52:21.794Z,0.2
2022-09-09T12:53:29.433Z,0.1
2022-09-09T12:54:39.123Z,0.1
2022-09-09T12:55:46.827Z,0.1
2022-09-09T12:56:55.477Z,0.1
2022-09-09T12:58:05.180Z,0.1
2022-09-09T12:59:13.859Z,0.1
2022-09-09T13:00:23.523Z,0.3
2022-09-09T13:01:32.357Z,0.5
2022-09-09T13:02:40.908Z,0.6
2022-09-09T13:03:50.568Z,0.1
2022-09-09T13:05:00.504Z,0.1
2022-09-09T13:06:08.906Z,0.2
2022-09-09T13:07:18.615Z,0.2
2022-09-09T13:08:28.253Z,0.2
2022-09-09T13:09:37.923Z,0.3
2022-09-09T13:10:53.085Z,0.3
2022-09-09T13:11:58.288Z,0.2
2022-09-09T13:13:07.953Z,0.2
2022-09-09T13:14:16.637Z,0.3
2022-09-09T13:15:26.318Z,0.2
2022-09-09T13:16:40.405Z,0.3
2022-09-09T13:17:45.700Z,0.2
2022-09-09T13:18:55.401Z,0.2
2022-09-09T13:20:04.060Z,0.2
2022-09-09T13:21:13.716Z,0.2
2022-09-09T13:22:22.371Z,0.1
2022-09-09T13:23:30.056Z,0.2
2022-09-09T13:24:39.784Z,0.2
2022-09-09T13:25:48.476Z,0.1
2022-09-09T13:26:57.140Z,0.3
2022-09-09T13:28:06.894Z,0.1
2022-09-09T13:29:14.465Z,0.2
2022-09-09T13:30:24.728Z,0.3
2022-09-09T13:31:33.316Z,0.3
2022-09-09T13:32:41.007Z,0.2
2022-09-09T13:33:50.676Z,0.1
2022-09-09T13:34:59.319Z,0.1
2022-09-09T13:36:09.030Z,0.1
2022-09-09T13:37:18.681Z,0.2
2022-09-09T13:38:28.330Z,0.1
2022-09-09T13:39:38.102Z,0.1
2022-09-09T13:40:47.696Z,0.1
2022-09-09T13:41:56.369Z,0.3
2022-09-09T13:43:06.023Z,0.1
2022-09-09T13:44:13.704Z,0.3
2022-09-09T13:45:22.354Z,0.3
2022-09-09T13:46:32.020Z,0.2
2022-09-09T13:47:40.702Z,0.1
2022-09-09T13:48:50.376Z,0.1
2022-09-09T13:49:59.068Z,0
2022-09-09T13:51:06.690Z,0.1
2022-09-09T13:52:16.360Z,0.2
2022-09-09T13:53:24.055Z,0.1
2022-09-09T13:54:33.724Z,0.1
2022-09-09T13:55:43.385Z,0.2
2022-09-09T13:56:52.282Z,0.1
2022-09-09T13:58:01.711Z,0.1
2022-09-09T13:59:10.383Z,0.1
2022-09-09T14:00:20.159Z,0.2
2022-09-09T14:01:30.029Z,0.1
2022-09-09T14:02:38.511Z,0.1
2022-09-09T14:03:48.157Z,0.3
2022-09-09T14:04:57.906Z,0.1
2022-09-09T14:06:05.568Z,0.1
2022-09-09T14:07:15.264Z,0.1
2022-09-09T14:08:23.932Z,0.2
2022-09-09T14:09:32.592Z,0.1
2022-09-09T14:10:42.295Z,0.2
2022-09-09T14:11:51.956Z,0.2
2022-09-09T14:13:00.629Z,0.3
2022-09-09T14:14:10.291Z,0.1
2022-09-09T14:15:18.963Z,0.1
2022-09-09T14:16:28.747Z,0.2
2022-09-09T14:17:38.420Z,0.2
2022-09-09T14:18:48.128Z,0.3
2022-09-09T14:19:57.976Z,0.2
2022-09-09T14:21:06.554Z,0.1
2022-09-09T14:22:15.282Z,0.1
2022-09-09T14:23:25.159Z,0.2
2022-09-09T14:24:33.360Z,0.2
2022-09-09T14:25:43.473Z,0.2
2022-09-09T14:26:53.170Z,0.1
2022-09-09T14:28:00.848Z,0.1
2022-09-09T14:29:10.531Z,0.2
2022-09-09T14:30:19.336Z,0.2
2022-09-09T14:31:28.008Z,0.2
2022-09-09T14:32:37.704Z,0.2
2022-09-09T14:33:45.363Z,0.3
2022-09-09T14:34:55.139Z,0.1
2022-09-09T14:36:03.841Z,0.3
2022-09-09T14:37:11.511Z,0.2
2022-09-09T14:38:21.203Z,0.2
2022-09-09T14:39:28.916Z,0.1
2022-09-09T14:40:37.601Z,0.1
2022-09-09T14:41:47.299Z,0.2
2022-09-09T14:42:57.033Z,0.2
2022-09-09T14:44:05.721Z,0.1
2022-09-09T14:45:14.454Z,0.2
2022-09-09T14:46:22.353Z,0.2
2022-09-09T14:47:32.071Z,0.2
2022-09-09T14:48:39.868Z,0.1
2022-09-09T14:49:48.458Z,0.1
2022-09-09T14:50:58.148Z,0.2
2022-09-09T14:52:05.843Z,0.2
2022-09-09T14:53:15.640Z,0.1
2022-09-09T14:54:24.326Z,0.1
2022-09-09T14:55:32.978Z,0.1
2022-09-09T14:56:42.791Z,0.2
2022-09-09T14:57:50.569Z,0.1
2022-09-09T14:58:59.510Z,0.1
2022-09-09T15:00:09.230Z,0.3
2022-09-09T15:01:17.946Z,0.2
2022-09-09T15:02:27.751Z,0.1
2022-09-09T15:03:36.477Z,0.1
2022-09-09T15:04:46.187Z,0.2
2022-09-09T15:05:55.857Z,0.3
2022-09-09T15:07:03.535Z,0.2
2022-09-09T15:08:12.264Z,0.3
2022-09-09T15:09:21.930Z,0.2
2022-09-09T15:10:30.637Z,0.2
2022-09-09T15:11:40.452Z,0.1
2022-09-09T15:12:49.180Z,0.2
2022-09-09T15:13:56.986Z,0.1
2022-09-09T15:15:06.661Z,0.1
2022-09-09T15:16:15.361Z,0.2
2022-09-09T15:17:24.983Z,0.2
2022-09-09T15:18:33.694Z,0.2
2022-09-09T15:19:42.395Z,0.3
2022-09-09T15:20:52.123Z,0.3
2022-09-09T15:21:59.758Z,0.2
2022-09-09T15:23:09.482Z,0.1
2022-09-09T15:24:18.183Z,0.2
2022-09-09T15:25:27.132Z,0.1
2022-09-09T15:26:36.936Z,0.2
2022-09-09T15:27:44.572Z,0.1
2022-09-09T15:28:54.240Z,0.2
2022-09-09T15:30:03.902Z,0.2
2022-09-09T15:31:11.667Z,0.2
2022-09-09T15:32:21.270Z,0.2
2022-09-09T15:33:29.995Z,0.3
2022-09-09T15:34:39.009Z,0.2
2022-09-09T15:35:48.339Z,0.2
2022-09-09T15:36:57.136Z,0.2
2022-09-09T15:38:05.788Z,0.2
2022-09-09T15:39:15.486Z,0.2
2022-09-09T15:40:23.201Z,0.3
2022-09-09T15:41:31.834Z,0.2
2022-09-09T15:42:40.535Z,0.3
2022-09-09T15:43:49.302Z,0.1
2022-09-09T15:44:59.140Z,0.2
2022-09-09T15:46:07.844Z,0.1
2022-09-09T15:47:17.484Z,0.2
2022-09-09T15:48:27.262Z,0.3
2022-09-09T15:49:35.866Z,0.2
2022-09-09T15:50:45.611Z,0.1
2022-09-09T15:51:55.348Z,0.2
2022-09-09T15:53:05.103Z,0.2
2022-09-09T15:54:14.777Z,0.3
2022-09-09T15:55:23.174Z,0.2
2022-09-09T15:56:32.117Z,0.2